Terminal Aerodrome Forecast
Issued by NWS

Home | Current Version | Previous Version | Text Only | Print | Product List | Glossary Off
Versions: 1 2 3 4 5 6 7 8 9 10 11 12 13 14 15 16

000
FTUS43 KBIS 232300
TAFJMS
TAF
KJMS 232329Z 2400/2424 10013KT P6SM BKN150
     FM240700 10011KT P6SM -RA SCT030 OVC050
     FM241300 09010KT P6SM OVC030
     FM241700 12009KT P6SM BKN040=

USA.gov is the U.S. government's official web portal to all federal, state and local government web resources and services.